Aérodrome :
LOGIN :

S'inscrire | Disclaimer

   EN    FR    IT 

 










Légende :    VFR   VFR Marginal   IFR   IFR Intensif   IFR Très Intensif
Visi : 
Plafond : 
>= 8 km
>= 3000ft
5 à 8 km
1000 à 3000 ft
1500m à 5 km
500 à 1000 ft
800 à 1500m
200 à 500 ft
< 800m
< 200 ft
Symboles :   Orages  Brouillard  Fortes neiges  Fortes précipitations  Vent > 20 kt
SIGMETs :   Divers  Orages  Givrage  Turbulence  Onde Orograph.  Cendres Volcan.






- Altitude de l'aérodrome : 32 ft
- Code IATA : NRK


ESSP - Norrköping

DERNIER METAR :
  • 300650Z 01010KT 330V030 CAVOK 00/M08 Q1024 R27/090095

METARs EXPIRÉS :
  • 300620Z 36009KT 9999 FEW038 M00/M07 Q1023 R27/090095
  • 300550Z 36010KT 9999 SCT038 M00/M07 Q1023 R27/090095
  • 300520Z 01009KT 340V040 9999 BKN047 00/M06 Q1023 R27/090095
  • 300450Z 35010KT 9999 BKN029 00/M06 Q1022 R27/090095
  • 300420Z AUTO 34010KT 9999 OVC046/// 00/M06 Q1022

TAF TAF ESSP
Valide du 30 à 06h jusqu'au 30 à 15h UTC


300530Z 3006/3015 36012KT 9999 SCT040



MET'MAP, la Météo Aéronautique d'un coup d'oeil ! - Copyright ORBIFLY Décembre 2007 - Disclaimer

ORBIFLY MET'MAP TEAM :

Programmation & Développement : Alexandra Zaïnal
Sur une idée originale de : Baudouin d'Aumeries
Assistance à la programmation : Marc-Olivier Méhu
Soutien technique & logistique : Manuel Goepfert

Contact : metmap@orbifly.com




SOURCES & CREDITS :

   NOAA